sensor_id;sensor_type;location;lat;lon;timestamp;P1;durP1;ratioP1;P2;durP2;ratioP2
10269;SDS011;5180;50.832;5.390;2022-12-07T00:01:22;19.08;;;13.10;;
10269;SDS011;5180;50.832;5.390;2022-12-07T00:03:50;20.00;;;12.45;;
10269;SDS011;5180;50.832;5.390;2022-12-07T00:06:18;24.40;;;12.70;;
10269;SDS011;5180;50.832;5.390;2022-12-07T00:08:44;19.17;;;12.18;;
10269;SDS011;5180;50.832;5.390;2022-12-07T00:11:12;18.98;;;12.73;;
10269;SDS011;5180;50.832;5.390;2022-12-07T00:13:44;19.58;;;11.88;;
10269;SDS011;5180;50.832;5.390;2022-12-07T00:16:17;24.38;;;12.93;;
10269;SDS011;5180;50.832;5.390;2022-12-07T00:18:44;22.90;;;12.77;;
10269;SDS011;5180;50.832;5.390;2022-12-07T00:21:14;18.05;;;12.65;;
10269;SDS011;5180;50.832;5.390;2022-12-07T00:23:44;18.75;;;12.90;;
10269;SDS011;5180;50.832;5.390;2022-12-07T00:26:13;19.17;;;12.55;;
10269;SDS011;5180;50.832;5.390;2022-12-07T00:28:49;21.48;;;12.57;;
10269;SDS011;5180;50.832;5.390;2022-12-07T00:31:17;22.75;;;13.95;;
10269;SDS011;5180;50.832;5.390;2022-12-07T00:33:45;21.13;;;13.15;;
10269;SDS011;5180;50.832;5.390;2022-12-07T00:36:15;23.08;;;13.25;;
10269;SDS011;5180;50.832;5.390;2022-12-07T00:38:43;24.52;;;12.43;;
10269;SDS011;5180;50.832;5.390;2022-12-07T00:41:10;21.67;;;12.35;;
10269;SDS011;5180;50.832;5.390;2022-12-07T00:43:36;18.90;;;12.48;;
10269;SDS011;5180;50.832;5.390;2022-12-07T00:46:02;25.10;;;13.52;;
10269;SDS011;5180;50.832;5.390;2022-12-07T00:48:28;22.15;;;13.10;;
10269;SDS011;5180;50.832;5.390;2022-12-07T00:50:54;19.67;;;12.60;;
10269;SDS011;5180;50.832;5.390;2022-12-07T00:53:20;20.48;;;13.15;;
10269;SDS011;5180;50.832;5.390;2022-12-07T00:55:46;20.27;;;12.43;;
10269;SDS011;5180;50.832;5.390;2022-12-07T00:58:11;17.85;;;12.07;;
10269;SDS011;5180;50.832;5.390;2022-12-07T01:00:38;21.77;;;12.65;;
10269;SDS011;5180;50.832;5.390;2022-12-07T01:03:05;24.23;;;12.95;;
10269;SDS011;5180;50.832;5.390;2022-12-07T01:05:33;22.83;;;12.75;;
10269;SDS011;5180;50.832;5.390;2022-12-07T01:07:59;20.83;;;12.70;;
10269;SDS011;5180;50.832;5.390;2022-12-07T01:10:25;21.05;;;12.02;;
10269;SDS011;5180;50.832;5.390;2022-12-07T01:12:51;20.70;;;12.68;;
10269;SDS011;5180;50.832;5.390;2022-12-07T01:15:17;20.52;;;13.23;;
10269;SDS011;5180;50.832;5.390;2022-12-07T01:17:42;25.63;;;12.57;;
10269;SDS011;5180;50.832;5.390;2022-12-07T01:20:08;19.15;;;12.13;;
10269;SDS011;5180;50.832;5.390;2022-12-07T01:22:38;23.52;;;13.13;;
10269;SDS011;5180;50.832;5.390;2022-12-07T01:25:05;20.17;;;11.90;;
10269;SDS011;5180;50.832;5.390;2022-12-07T01:27:32;17.38;;;11.52;;
10269;SDS011;5180;50.832;5.390;2022-12-07T01:29:58;23.88;;;12.88;;
10269;SDS011;5180;50.832;5.390;2022-12-07T01:32:24;24.10;;;13.35;;
10269;SDS011;5180;50.832;5.390;2022-12-07T01:34:49;25.10;;;13.68;;
10269;SDS011;5180;50.832;5.390;2022-12-07T01:37:15;19.95;;;13.15;;
10269;SDS011;5180;50.832;5.390;2022-12-07T01:39:41;20.88;;;12.48;;
10269;SDS011;5180;50.832;5.390;2022-12-07T01:42:10;22.20;;;12.65;;
10269;SDS011;5180;50.832;5.390;2022-12-07T01:47:40;23.35;;;12.98;;
10269;SDS011;5180;50.832;5.390;2022-12-07T01:50:07;24.38;;;13.70;;
10269;SDS011;5180;50.832;5.390;2022-12-07T01:52:33;22.20;;;13.48;;
10269;SDS011;5180;50.832;5.390;2022-12-07T01:55:03;24.77;;;14.10;;
10269;SDS011;5180;50.832;5.390;2022-12-07T01:57:37;21.13;;;13.52;;
10269;SDS011;5180;50.832;5.390;2022-12-07T02:00:06;21.40;;;12.77;;
10269;SDS011;5180;50.832;5.390;2022-12-07T02:02:33;21.83;;;13.10;;
10269;SDS011;5180;50.832;5.390;2022-12-07T02:05:03;26.35;;;14.15;;
10269;SDS011;5180;50.832;5.390;2022-12-07T02:07:30;18.50;;;12.85;;
10269;SDS011;5180;50.832;5.390;2022-12-07T02:10:15;20.90;;;13.48;;
10269;SDS011;5180;50.832;5.390;2022-12-07T02:12:42;20.00;;;13.35;;
10269;SDS011;5180;50.832;5.390;2022-12-07T02:15:13;22.58;;;14.10;;
10269;SDS011;5180;50.832;5.390;2022-12-07T02:17:42;23.92;;;14.48;;
10269;SDS011;5180;50.832;5.390;2022-12-07T02:23:44;23.73;;;12.48;;
10269;SDS011;5180;50.832;5.390;2022-12-07T02:29:10;23.70;;;13.10;;
10269;SDS011;5180;50.832;5.390;2022-12-07T02:31:46;20.02;;;13.48;;
10269;SDS011;5180;50.832;5.390;2022-12-07T02:34:28;24.60;;;12.82;;
10269;SDS011;5180;50.832;5.390;2022-12-07T02:36:56;24.00;;;12.88;;
10269;SDS011;5180;50.832;5.390;2022-12-07T02:39:39;20.35;;;12.75;;
10269;SDS011;5180;50.832;5.390;2022-12-07T02:42:23;21.83;;;14.50;;
10269;SDS011;5180;50.832;5.390;2022-12-07T02:44:51;21.15;;;13.55;;
10269;SDS011;5180;50.832;5.390;2022-12-07T02:47:18;22.13;;;14.05;;
10269;SDS011;5180;50.832;5.390;2022-12-07T02:49:46;28.70;;;15.23;;
10269;SDS011;5180;50.832;5.390;2022-12-07T02:52:12;24.17;;;14.15;;
10269;SDS011;5180;50.832;5.390;2022-12-07T02:54:38;28.08;;;15.15;;
10269;SDS011;5180;50.832;5.390;2022-12-07T03:08:11;25.08;;;15.98;;
10269;SDS011;5180;50.832;5.390;2022-12-07T03:10:59;31.58;;;16.13;;
10269;SDS011;5180;50.832;5.390;2022-12-07T03:13:29;22.45;;;14.10;;
10269;SDS011;5180;50.832;5.390;2022-12-07T03:16:27;25.85;;;16.25;;
10269;SDS011;5180;50.832;5.390;2022-12-07T03:18:56;32.10;;;16.38;;
10269;SDS011;5180;50.832;5.390;2022-12-07T03:21:39;27.10;;;16.35;;
10269;SDS011;5180;50.832;5.390;2022-12-07T03:24:27;26.40;;;15.38;;
10269;SDS011;5180;50.832;5.390;2022-12-07T03:27:01;27.33;;;15.73;;
10269;SDS011;5180;50.832;5.390;2022-12-07T03:29:34;25.67;;;16.17;;
10269;SDS011;5180;50.832;5.390;2022-12-07T03:32:06;27.98;;;15.75;;
10269;SDS011;5180;50.832;5.390;2022-12-07T03:34:50;24.48;;;15.25;;
10269;SDS011;5180;50.832;5.390;2022-12-07T03:37:24;29.40;;;16.00;;
10269;SDS011;5180;50.832;5.390;2022-12-07T03:40:04;24.67;;;15.68;;
10269;SDS011;5180;50.832;5.390;2022-12-07T03:42:31;30.98;;;15.68;;
10269;SDS011;5180;50.832;5.390;2022-12-07T03:44:58;27.70;;;15.98;;
10269;SDS011;5180;50.832;5.390;2022-12-07T03:47:38;29.15;;;15.68;;
10269;SDS011;5180;50.832;5.390;2022-12-07T03:50:22;29.08;;;15.65;;
10269;SDS011;5180;50.832;5.390;2022-12-07T03:53:01;24.52;;;14.65;;
10269;SDS011;5180;50.832;5.390;2022-12-07T03:55:34;28.25;;;15.43;;
10269;SDS011;5180;50.832;5.390;2022-12-07T03:58:05;27.85;;;15.90;;
10269;SDS011;5180;50.832;5.390;2022-12-07T04:00:34;26.55;;;16.13;;
10269;SDS011;5180;50.832;5.390;2022-12-07T04:03:00;27.15;;;16.10;;
10269;SDS011;5180;50.832;5.390;2022-12-07T04:05:26;25.98;;;15.55;;
10269;SDS011;5180;50.832;5.390;2022-12-07T04:07:52;25.75;;;15.68;;
10269;SDS011;5180;50.832;5.390;2022-12-07T04:10:18;25.88;;;15.20;;
10269;SDS011;5180;50.832;5.390;2022-12-07T04:12:44;25.15;;;14.85;;
10269;SDS011;5180;50.832;5.390;2022-12-07T04:15:09;23.17;;;13.75;;
10269;SDS011;5180;50.832;5.390;2022-12-07T04:17:35;22.75;;;14.23;;
10269;SDS011;5180;50.832;5.390;2022-12-07T04:20:01;31.50;;;17.05;;
10269;SDS011;5180;50.832;5.390;2022-12-07T04:22:28;27.58;;;16.30;;
10269;SDS011;5180;50.832;5.390;2022-12-07T04:24:54;26.75;;;15.57;;
10269;SDS011;5180;50.832;5.390;2022-12-07T04:27:20;29.08;;;14.75;;
10269;SDS011;5180;50.832;5.390;2022-12-07T04:29:45;29.67;;;14.38;;
10269;SDS011;5180;50.832;5.390;2022-12-07T04:32:11;26.60;;;14.38;;
10269;SDS011;5180;50.832;5.390;2022-12-07T04:34:37;31.10;;;14.90;;
10269;SDS011;5180;50.832;5.390;2022-12-07T04:37:02;29.70;;;14.13;;
10269;SDS011;5180;50.832;5.390;2022-12-07T04:39:29;26.55;;;14.00;;
10269;SDS011;5180;50.832;5.390;2022-12-07T04:41:57;25.20;;;13.75;;
10269;SDS011;5180;50.832;5.390;2022-12-07T04:44:24;30.58;;;13.70;;
10269;SDS011;5180;50.832;5.390;2022-12-07T04:46:51;28.45;;;14.63;;
10269;SDS011;5180;50.832;5.390;2022-12-07T04:49:17;143.60;;;17.27;;
10269;SDS011;5180;50.832;5.390;2022-12-07T04:51:44;31.60;;;13.30;;
10269;SDS011;5180;50.832;5.390;2022-12-07T04:54:10;26.63;;;13.57;;
10269;SDS011;5180;50.832;5.390;2022-12-07T04:56:36;78.90;;;15.88;;
10269;SDS011;5180;50.832;5.390;2022-12-07T04:59:03;156.43;;;18.35;;
10269;SDS011;5180;50.832;5.390;2022-12-07T05:01:29;37.10;;;16.63;;
10269;SDS011;5180;50.832;5.390;2022-12-07T05:03:55;25.50;;;14.95;;
10269;SDS011;5180;50.832;5.390;2022-12-07T05:06:21;35.33;;;15.90;;
10269;SDS011;5180;50.832;5.390;2022-12-07T05:08:47;35.83;;;17.30;;
10269;SDS011;5180;50.832;5.390;2022-12-07T05:11:13;26.17;;;15.60;;
10269;SDS011;5180;50.832;5.390;2022-12-07T05:13:59;28.55;;;15.77;;
10269;SDS011;5180;50.832;5.390;2022-12-07T05:16:25;25.48;;;14.68;;
10269;SDS011;5180;50.832;5.390;2022-12-07T05:18:51;35.60;;;17.20;;
10269;SDS011;5180;50.832;5.390;2022-12-07T05:21:17;31.52;;;15.80;;
10269;SDS011;5180;50.832;5.390;2022-12-07T05:23:43;37.47;;;16.45;;
10269;SDS011;5180;50.832;5.390;2022-12-07T05:26:09;28.58;;;16.08;;
10269;SDS011;5180;50.832;5.390;2022-12-07T05:28:34;30.92;;;15.02;;
10269;SDS011;5180;50.832;5.390;2022-12-07T05:31:00;25.67;;;15.70;;
10269;SDS011;5180;50.832;5.390;2022-12-07T05:33:26;26.33;;;14.98;;
10269;SDS011;5180;50.832;5.390;2022-12-07T05:35:51;28.88;;;16.50;;
10269;SDS011;5180;50.832;5.390;2022-12-07T05:38:17;22.90;;;12.35;;
10269;SDS011;5180;50.832;5.390;2022-12-07T05:40:43;33.10;;;14.77;;
10269;SDS011;5180;50.832;5.390;2022-12-07T05:43:08;30.92;;;14.73;;
10269;SDS011;5180;50.832;5.390;2022-12-07T05:45:35;34.80;;;14.68;;
10269;SDS011;5180;50.832;5.390;2022-12-07T05:48:00;101.50;;;16.48;;
10269;SDS011;5180;50.832;5.390;2022-12-07T05:50:26;36.85;;;14.75;;
10269;SDS011;5180;50.832;5.390;2022-12-07T05:52:52;32.53;;;14.50;;
10269;SDS011;5180;50.832;5.390;2022-12-07T05:55:18;38.58;;;15.98;;
10269;SDS011;5180;50.832;5.390;2022-12-07T05:57:44;79.30;;;15.77;;
10269;SDS011;5180;50.832;5.390;2022-12-07T06:00:29;232.20;;;19.45;;
10269;SDS011;5180;50.832;5.390;2022-12-07T06:02:55;569.15;;;31.13;;
10269;SDS011;5180;50.832;5.390;2022-12-07T06:05:21;92.03;;;16.00;;
10269;SDS011;5180;50.832;5.390;2022-12-07T06:07:46;41.35;;;15.77;;
10269;SDS011;5180;50.832;5.390;2022-12-07T06:10:12;38.35;;;15.57;;
10269;SDS011;5180;50.832;5.390;2022-12-07T06:12:38;34.10;;;15.75;;
10269;SDS011;5180;50.832;5.390;2022-12-07T06:15:07;37.95;;;15.75;;
10269;SDS011;5180;50.832;5.390;2022-12-07T06:17:34;33.28;;;14.88;;
10269;SDS011;5180;50.832;5.390;2022-12-07T06:20:00;37.00;;;15.52;;
10269;SDS011;5180;50.832;5.390;2022-12-07T06:22:26;41.03;;;15.30;;
10269;SDS011;5180;50.832;5.390;2022-12-07T06:24:51;40.83;;;15.60;;
10269;SDS011;5180;50.832;5.390;2022-12-07T06:27:17;37.28;;;15.88;;
10269;SDS011;5180;50.832;5.390;2022-12-07T06:29:43;34.13;;;15.52;;
10269;SDS011;5180;50.832;5.390;2022-12-07T06:32:08;33.22;;;15.55;;
10269;SDS011;5180;50.832;5.390;2022-12-07T06:34:34;44.85;;;15.13;;
10269;SDS011;5180;50.832;5.390;2022-12-07T06:37:00;37.42;;;15.27;;
10269;SDS011;5180;50.832;5.390;2022-12-07T06:39:26;42.20;;;15.50;;
10269;SDS011;5180;50.832;5.390;2022-12-07T06:41:53;37.30;;;15.38;;
10269;SDS011;5180;50.832;5.390;2022-12-07T06:44:19;31.98;;;15.27;;
10269;SDS011;5180;50.832;5.390;2022-12-07T06:46:46;34.72;;;15.85;;
10269;SDS011;5180;50.832;5.390;2022-12-07T06:49:12;34.10;;;15.13;;
10269;SDS011;5180;50.832;5.390;2022-12-07T06:51:38;40.22;;;15.25;;
10269;SDS011;5180;50.832;5.390;2022-12-07T06:54:07;44.70;;;15.32;;
10269;SDS011;5180;50.832;5.390;2022-12-07T06:56:33;30.90;;;14.55;;
10269;SDS011;5180;50.832;5.390;2022-12-07T06:58:59;34.15;;;15.27;;
10269;SDS011;5180;50.832;5.390;2022-12-07T07:01:24;37.38;;;14.20;;
10269;SDS011;5180;50.832;5.390;2022-12-07T07:03:50;39.92;;;16.08;;
10269;SDS011;5180;50.832;5.390;2022-12-07T07:06:15;37.05;;;15.45;;
10269;SDS011;5180;50.832;5.390;2022-12-07T07:08:41;35.97;;;14.30;;
10269;SDS011;5180;50.832;5.390;2022-12-07T07:11:07;46.97;;;16.30;;
10269;SDS011;5180;50.832;5.390;2022-12-07T07:13:34;33.58;;;14.68;;
10269;SDS011;5180;50.832;5.390;2022-12-07T07:16:00;34.80;;;15.15;;
10269;SDS011;5180;50.832;5.390;2022-12-07T07:18:26;45.72;;;15.35;;
10269;SDS011;5180;50.832;5.390;2022-12-07T07:20:53;33.25;;;15.63;;
10269;SDS011;5180;50.832;5.390;2022-12-07T07:23:19;32.58;;;14.55;;
10269;SDS011;5180;50.832;5.390;2022-12-07T07:25:46;30.23;;;14.27;;
10269;SDS011;5180;50.832;5.390;2022-12-07T07:28:12;33.55;;;14.75;;
10269;SDS011;5180;50.832;5.390;2022-12-07T07:30:38;34.08;;;14.95;;
10269;SDS011;5180;50.832;5.390;2022-12-07T07:33:04;29.35;;;14.02;;
10269;SDS011;5180;50.832;5.390;2022-12-07T07:35:31;35.40;;;14.40;;
10269;SDS011;5180;50.832;5.390;2022-12-07T07:37:57;31.10;;;14.70;;
10269;SDS011;5180;50.832;5.390;2022-12-07T07:40:24;30.58;;;13.65;;
10269;SDS011;5180;50.832;5.390;2022-12-07T07:42:51;32.47;;;14.35;;
10269;SDS011;5180;50.832;5.390;2022-12-07T07:45:18;29.17;;;14.10;;
10269;SDS011;5180;50.832;5.390;2022-12-07T07:47:46;35.47;;;15.23;;
10269;SDS011;5180;50.832;5.390;2022-12-07T07:50:12;26.95;;;14.43;;
10269;SDS011;5180;50.832;5.390;2022-12-07T07:52:38;34.83;;;14.43;;
10269;SDS011;5180;50.832;5.390;2022-12-07T07:55:04;39.97;;;14.60;;
10269;SDS011;5180;50.832;5.390;2022-12-07T07:57:30;24.02;;;12.55;;
10269;SDS011;5180;50.832;5.390;2022-12-07T07:59:56;27.00;;;13.75;;
10269;SDS011;5180;50.832;5.390;2022-12-07T08:02:21;31.60;;;13.35;;
10269;SDS011;5180;50.832;5.390;2022-12-07T08:04:48;43.05;;;14.20;;
10269;SDS011;5180;50.832;5.390;2022-12-07T08:07:14;42.17;;;13.77;;
10269;SDS011;5180;50.832;5.390;2022-12-07T08:09:40;33.90;;;13.88;;
10269;SDS011;5180;50.832;5.390;2022-12-07T08:12:06;27.80;;;12.48;;
10269;SDS011;5180;50.832;5.390;2022-12-07T08:14:32;30.25;;;13.65;;
10269;SDS011;5180;50.832;5.390;2022-12-07T08:16:59;63.88;;;13.48;;
10269;SDS011;5180;50.832;5.390;2022-12-07T08:19:25;35.22;;;13.13;;
10269;SDS011;5180;50.832;5.390;2022-12-07T08:21:50;188.63;;;17.58;;
10269;SDS011;5180;50.832;5.390;2022-12-07T08:24:16;238.20;;;20.48;;
10269;SDS011;5180;50.832;5.390;2022-12-07T08:26:42;350.20;;;24.42;;
10269;SDS011;5180;50.832;5.390;2022-12-07T08:29:08;49.47;;;15.20;;
10269;SDS011;5180;50.832;5.390;2022-12-07T08:31:34;27.60;;;14.18;;
10269;SDS011;5180;50.832;5.390;2022-12-07T08:34:00;27.60;;;14.00;;
10269;SDS011;5180;50.832;5.390;2022-12-07T08:36:25;20.58;;;12.57;;
10269;SDS011;5180;50.832;5.390;2022-12-07T08:38:51;43.83;;;14.43;;
10269;SDS011;5180;50.832;5.390;2022-12-07T08:41:17;17.40;;;13.80;;
10269;SDS011;5180;50.832;5.390;2022-12-07T08:43:42;25.75;;;12.15;;
10269;SDS011;5180;50.832;5.390;2022-12-07T08:48:41;19.00;;;11.20;;
10269;SDS011;5180;50.832;5.390;2022-12-07T08:51:20;15.10;;;12.18;;
10269;SDS011;5180;50.832;5.390;2022-12-07T08:53:47;16.67;;;11.63;;
10269;SDS011;5180;50.832;5.390;2022-12-07T08:56:14;14.65;;;10.18;;
10269;SDS011;5180;50.832;5.390;2022-12-07T08:58:40;15.65;;;9.85;;
10269;SDS011;5180;50.832;5.390;2022-12-07T09:01:06;15.90;;;9.32;;
10269;SDS011;5180;50.832;5.390;2022-12-07T09:03:32;14.38;;;9.77;;
10269;SDS011;5180;50.832;5.390;2022-12-07T09:05:58;16.13;;;9.48;;
10269;SDS011;5180;50.832;5.390;2022-12-07T09:08:26;19.58;;;9.45;;
10269;SDS011;5180;50.832;5.390;2022-12-07T09:10:56;15.85;;;10.32;;
10269;SDS011;5180;50.832;5.390;2022-12-07T09:13:21;17.25;;;11.82;;
10269;SDS011;5180;50.832;5.390;2022-12-07T09:15:47;25.08;;;14.35;;
10269;SDS011;5180;50.832;5.390;2022-12-07T09:18:13;20.08;;;15.07;;
10269;SDS011;5180;50.832;5.390;2022-12-07T09:20:39;20.13;;;11.60;;
10269;SDS011;5180;50.832;5.390;2022-12-07T09:23:07;14.95;;;11.15;;
10269;SDS011;5180;50.832;5.390;2022-12-07T09:25:33;13.55;;;10.15;;
10269;SDS011;5180;50.832;5.390;2022-12-07T09:27:59;15.65;;;9.45;;
10269;SDS011;5180;50.832;5.390;2022-12-07T09:30:26;12.35;;;8.60;;
10269;SDS011;5180;50.832;5.390;2022-12-07T09:32:56;11.63;;;8.40;;
10269;SDS011;5180;50.832;5.390;2022-12-07T09:35:22;10.60;;;8.10;;
10269;SDS011;5180;50.832;5.390;2022-12-07T09:37:49;12.65;;;8.30;;
10269;SDS011;5180;50.832;5.390;2022-12-07T09:40:14;14.15;;;8.35;;
10269;SDS011;5180;50.832;5.390;2022-12-07T09:42:43;13.15;;;8.57;;
10269;SDS011;5180;50.832;5.390;2022-12-07T09:45:13;14.55;;;8.75;;
10269;SDS011;5180;50.832;5.390;2022-12-07T09:47:41;10.30;;;7.80;;
10269;SDS011;5180;50.832;5.390;2022-12-07T09:50:12;13.93;;;8.88;;
10269;SDS011;5180;50.832;5.390;2022-12-07T09:52:40;13.95;;;9.18;;
10269;SDS011;5180;50.832;5.390;2022-12-07T09:55:11;21.70;;;9.82;;
10269;SDS011;5180;50.832;5.390;2022-12-07T09:57:38;14.32;;;10.32;;
10269;SDS011;5180;50.832;5.390;2022-12-07T10:00:06;16.40;;;10.15;;
10269;SDS011;5180;50.832;5.390;2022-12-07T10:02:38;12.20;;;8.57;;
10269;SDS011;5180;50.832;5.390;2022-12-07T10:05:12;10.55;;;8.32;;
10269;SDS011;5180;50.832;5.390;2022-12-07T10:07:40;11.52;;;7.97;;
10269;SDS011;5180;50.832;5.390;2022-12-07T10:10:14;15.32;;;8.25;;
10269;SDS011;5180;50.832;5.390;2022-12-07T10:12:52;11.75;;;8.32;;
10269;SDS011;5180;50.832;5.390;2022-12-07T10:15:21;12.45;;;8.02;;
10269;SDS011;5180;50.832;5.390;2022-12-07T10:17:51;12.07;;;8.15;;
10269;SDS011;5180;50.832;5.390;2022-12-07T10:20:19;12.68;;;8.63;;
10269;SDS011;5180;50.832;5.390;2022-12-07T10:25:34;14.00;;;8.68;;
10269;SDS011;5180;50.832;5.390;2022-12-07T10:28:16;13.25;;;9.38;;
10269;SDS011;5180;50.832;5.390;2022-12-07T10:31:02;14.38;;;9.85;;
10269;SDS011;5180;50.832;5.390;2022-12-07T10:36:25;14.50;;;8.30;;
10269;SDS011;5180;50.832;5.390;2022-12-07T10:41:58;17.85;;;9.63;;
10269;SDS011;5180;50.832;5.390;2022-12-07T10:44:26;14.25;;;9.18;;
10269;SDS011;5180;50.832;5.390;2022-12-07T10:58:00;13.63;;;8.65;;
10269;SDS011;5180;50.832;5.390;2022-12-07T11:16:34;11.65;;;7.70;;
10269;SDS011;5180;50.832;5.390;2022-12-07T11:22:04;11.63;;;7.35;;
10269;SDS011;5180;50.832;5.390;2022-12-07T11:27:36;15.95;;;9.07;;
10269;SDS011;5180;50.832;5.390;2022-12-07T11:30:19;17.17;;;9.93;;
10269;SDS011;5180;50.832;5.390;2022-12-07T11:32:57;14.10;;;9.38;;
10269;SDS011;5180;50.832;5.390;2022-12-07T11:35:37;15.18;;;8.80;;
10269;SDS011;5180;50.832;5.390;2022-12-07T11:38:21;16.60;;;8.75;;
10269;SDS011;5180;50.832;5.390;2022-12-07T11:40:53;13.32;;;8.48;;
10269;SDS011;5180;50.832;5.390;2022-12-07T11:43:37;12.77;;;7.78;;
10269;SDS011;5180;50.832;5.390;2022-12-07T11:46:19;11.43;;;7.72;;
10269;SDS011;5180;50.832;5.390;2022-12-07T11:49:02;14.10;;;7.72;;
10269;SDS011;5180;50.832;5.390;2022-12-07T11:51:35;18.75;;;7.38;;
10269;SDS011;5180;50.832;5.390;2022-12-07T11:54:05;10.98;;;6.95;;
10269;SDS011;5180;50.832;5.390;2022-12-07T11:56:56;9.02;;;6.88;;
10269;SDS011;5180;50.832;5.390;2022-12-07T11:59:48;15.38;;;8.32;;
10269;SDS011;5180;50.832;5.390;2022-12-07T12:02:24;11.50;;;7.95;;
10269;SDS011;5180;50.832;5.390;2022-12-07T12:05:21;11.30;;;7.20;;
10269;SDS011;5180;50.832;5.390;2022-12-07T12:07:50;12.15;;;8.65;;
10269;SDS011;5180;50.832;5.390;2022-12-07T12:10:27;10.13;;;5.53;;
10269;SDS011;5180;50.832;5.390;2022-12-07T12:13:21;7.03;;;5.13;;
10269;SDS011;5180;50.832;5.390;2022-12-07T12:21:09;6.95;;;4.82;;
10269;SDS011;5180;50.832;5.390;2022-12-07T12:23:44;11.80;;;5.45;;
10269;SDS011;5180;50.832;5.390;2022-12-07T12:31:16;9.38;;;4.05;;
10269;SDS011;5180;50.832;5.390;2022-12-07T12:34:29;6.50;;;4.00;;
10269;SDS011;5180;50.832;5.390;2022-12-07T12:37:55;5.95;;;3.72;;
10269;SDS011;5180;50.832;5.390;2022-12-07T12:42:46;6.55;;;3.00;;
10269;SDS011;5180;50.832;5.390;2022-12-07T12:45:26;6.15;;;3.15;;
10269;SDS011;5180;50.832;5.390;2022-12-07T12:50:26;6.78;;;3.33;;
10269;SDS011;5180;50.832;5.390;2022-12-07T12:53:02;7.47;;;3.40;;
10269;SDS011;5180;50.832;5.390;2022-12-07T13:00:47;7.03;;;3.30;;
10269;SDS011;5180;50.832;5.390;2022-12-07T13:03:34;7.55;;;3.58;;
10269;SDS011;5180;50.832;5.390;2022-12-07T13:06:19;7.07;;;3.38;;
10269;SDS011;5180;50.832;5.390;2022-12-07T13:08:45;8.45;;;3.38;;
10269;SDS011;5180;50.832;5.390;2022-12-07T13:17:02;7.22;;;3.58;;
10269;SDS011;5180;50.832;5.390;2022-12-07T13:27:59;7.90;;;4.93;;
10269;SDS011;5180;50.832;5.390;2022-12-07T13:30:32;8.32;;;4.20;;
10269;SDS011;5180;50.832;5.390;2022-12-07T13:33:05;9.77;;;4.25;;
10269;SDS011;5180;50.832;5.390;2022-12-07T13:35:34;9.10;;;4.30;;
10269;SDS011;5180;50.832;5.390;2022-12-07T13:38:04;7.40;;;3.75;;
10269;SDS011;5180;50.832;5.390;2022-12-07T13:40:39;7.85;;;3.45;;
10269;SDS011;5180;50.832;5.390;2022-12-07T13:43:11;6.50;;;3.33;;
10269;SDS011;5180;50.832;5.390;2022-12-07T13:45:39;4.25;;;2.95;;
10269;SDS011;5180;50.832;5.390;2022-12-07T13:48:49;2.97;;;2.30;;
10269;SDS011;5180;50.832;5.390;2022-12-07T13:51:16;4.80;;;1.80;;
10269;SDS011;5180;50.832;5.390;2022-12-07T13:53:47;5.00;;;1.70;;
10269;SDS011;5180;50.832;5.390;2022-12-07T13:56:25;5.32;;;2.00;;
10269;SDS011;5180;50.832;5.390;2022-12-07T13:58:56;3.25;;;1.73;;
10269;SDS011;5180;50.832;5.390;2022-12-07T14:01:22;3.72;;;1.95;;
10269;SDS011;5180;50.832;5.390;2022-12-07T14:03:49;5.88;;;1.85;;
10269;SDS011;5180;50.832;5.390;2022-12-07T14:11:55;2.15;;;1.75;;
10269;SDS011;5180;50.832;5.390;2022-12-07T14:14:23;6.18;;;2.00;;
10269;SDS011;5180;50.832;5.390;2022-12-07T14:16:56;5.78;;;2.20;;
10269;SDS011;5180;50.832;5.390;2022-12-07T14:24:48;7.13;;;2.50;;
10269;SDS011;5180;50.832;5.390;2022-12-07T14:27:22;5.53;;;2.78;;
10269;SDS011;5180;50.832;5.390;2022-12-07T14:29:50;3.83;;;2.30;;
10269;SDS011;5180;50.832;5.390;2022-12-07T14:37:43;6.65;;;2.70;;
10269;SDS011;5180;50.832;5.390;2022-12-07T14:40:18;4.90;;;2.50;;
10269;SDS011;5180;50.832;5.390;2022-12-07T14:42:46;4.13;;;2.50;;
10269;SDS011;5180;50.832;5.390;2022-12-07T14:45:15;5.18;;;2.97;;
10269;SDS011;5180;50.832;5.390;2022-12-07T14:47:43;7.32;;;2.85;;
10269;SDS011;5180;50.832;5.390;2022-12-07T14:50:11;9.15;;;3.40;;
10269;SDS011;5180;50.832;5.390;2022-12-07T14:52:42;7.32;;;3.25;;
10269;SDS011;5180;50.832;5.390;2022-12-07T14:55:13;7.40;;;3.20;;
10269;SDS011;5180;50.832;5.390;2022-12-07T14:57:50;6.68;;;3.53;;
10269;SDS011;5180;50.832;5.390;2022-12-07T15:00:16;6.35;;;3.35;;
10269;SDS011;5180;50.832;5.390;2022-12-07T15:02:43;5.05;;;3.08;;
10269;SDS011;5180;50.832;5.390;2022-12-07T15:05:09;6.40;;;3.28;;
10269;SDS011;5180;50.832;5.390;2022-12-07T15:07:35;5.97;;;3.15;;
10269;SDS011;5180;50.832;5.390;2022-12-07T15:10:01;7.43;;;3.38;;
10269;SDS011;5180;50.832;5.390;2022-12-07T15:12:28;6.47;;;3.50;;
10269;SDS011;5180;50.832;5.390;2022-12-07T15:14:53;6.75;;;4.00;;
10269;SDS011;5180;50.832;5.390;2022-12-07T15:17:19;7.55;;;4.85;;
10269;SDS011;5180;50.832;5.390;2022-12-07T15:19:45;6.80;;;6.07;;
10269;SDS011;5180;50.832;5.390;2022-12-07T15:22:10;7.72;;;6.78;;
10269;SDS011;5180;50.832;5.390;2022-12-07T15:24:36;7.65;;;6.82;;
10269;SDS011;5180;50.832;5.390;2022-12-07T15:27:02;6.50;;;5.78;;
10269;SDS011;5180;50.832;5.390;2022-12-07T15:29:28;6.10;;;5.15;;
10269;SDS011;5180;50.832;5.390;2022-12-07T15:31:54;5.80;;;4.88;;
10269;SDS011;5180;50.832;5.390;2022-12-07T15:34:20;7.43;;;4.32;;
10269;SDS011;5180;50.832;5.390;2022-12-07T15:36:45;7.93;;;3.58;;
10269;SDS011;5180;50.832;5.390;2022-12-07T15:39:11;8.00;;;3.72;;
10269;SDS011;5180;50.832;5.390;2022-12-07T15:41:37;8.00;;;3.90;;
10269;SDS011;5180;50.832;5.390;2022-12-07T15:44:03;7.00;;;4.35;;
10269;SDS011;5180;50.832;5.390;2022-12-07T15:46:47;13.18;;;5.03;;
10269;SDS011;5180;50.832;5.390;2022-12-07T15:49:14;10.30;;;5.55;;
10269;SDS011;5180;50.832;5.390;2022-12-07T15:51:41;10.00;;;5.80;;
10269;SDS011;5180;50.832;5.390;2022-12-07T15:54:12;12.15;;;5.63;;
10269;SDS011;5180;50.832;5.390;2022-12-07T15:56:40;8.77;;;5.72;;
10269;SDS011;5180;50.832;5.390;2022-12-07T15:59:06;13.00;;;5.60;;
10269;SDS011;5180;50.832;5.390;2022-12-07T16:01:32;9.48;;;5.50;;
10269;SDS011;5180;50.832;5.390;2022-12-07T16:03:57;7.28;;;5.45;;
10269;SDS011;5180;50.832;5.390;2022-12-07T16:06:24;7.75;;;4.93;;
10269;SDS011;5180;50.832;5.390;2022-12-07T16:08:50;7.93;;;4.22;;
10269;SDS011;5180;50.832;5.390;2022-12-07T16:11:16;8.02;;;4.28;;
10269;SDS011;5180;50.832;5.390;2022-12-07T16:13:41;6.15;;;4.13;;
10269;SDS011;5180;50.832;5.390;2022-12-07T16:16:09;7.40;;;4.10;;
10269;SDS011;5180;50.832;5.390;2022-12-07T16:18:37;4.78;;;3.90;;
10269;SDS011;5180;50.832;5.390;2022-12-07T16:21:03;6.50;;;3.72;;
10269;SDS011;5180;50.832;5.390;2022-12-07T16:23:29;5.32;;;3.58;;
10269;SDS011;5180;50.832;5.390;2022-12-07T16:26:02;6.95;;;3.50;;
10269;SDS011;5180;50.832;5.390;2022-12-07T16:28:39;6.40;;;3.45;;
10269;SDS011;5180;50.832;5.390;2022-12-07T16:31:24;6.18;;;3.35;;
10269;SDS011;5180;50.832;5.390;2022-12-07T16:33:52;7.03;;;3.38;;
10269;SDS011;5180;50.832;5.390;2022-12-07T16:36:19;5.50;;;3.25;;
10269;SDS011;5180;50.832;5.390;2022-12-07T16:38:47;5.20;;;3.15;;
10269;SDS011;5180;50.832;5.390;2022-12-07T16:41:13;3.20;;;2.92;;
10269;SDS011;5180;50.832;5.390;2022-12-07T16:43:38;5.18;;;3.40;;
10269;SDS011;5180;50.832;5.390;2022-12-07T16:46:04;4.05;;;3.25;;
10269;SDS011;5180;50.832;5.390;2022-12-07T16:48:30;7.13;;;3.75;;
10269;SDS011;5180;50.832;5.390;2022-12-07T16:50:56;6.90;;;3.55;;
10269;SDS011;5180;50.832;5.390;2022-12-07T16:53:23;4.57;;;3.33;;